Time;durP1;ratioP1;P1;durP2;ratioP2;P2;SDS_P1;SDS_P2;PMS_P1;PMS_P2;Temp;Humidity;BMP_temperature;BMP_pressure;BME280_temperature;BME280_humidity;BME280_pressure;Samples;Min_cycle;Max_cycle;Signal;HPM_P1;HPM_P2
2023/07/02 00:00:28;;;;;;;11.40;4.40;;;;;;;20.35;100.00;100605.09;2081254;28;20192;-67
2023/07/02 00:01:29;;;;;;;10.90;4.37;;;;;;;19.90;100.00;100530.03;2078515;28;20204;-67
2023/07/02 00:02:29;;;;;;;11.17;4.20;;;;;;;20.37;100.00;100603.31;2074409;28;20639;-67
2023/07/02 00:03:29;;;;;;;7.50;3.90;;;;;;;20.41;100.00;100594.69;2080621;28;20672;-67
2023/07/02 00:04:30;;;;;;;9.50;3.73;;;;;;;20.36;100.00;100590.53;2081076;28;20264;-67
2023/07/02 00:05:30;;;;;;;8.43;4.30;;;;;;;20.39;100.00;100588.75;2081095;28;20177;-67
2023/07/02 00:06:32;;;;;;;10.93;4.17;;;;;;;20.40;100.00;100585.44;2081064;28;20181;-67
2023/07/02 00:07:34;;;;;;;12.53;4.73;;;;;;;19.95;100.00;100513.19;2080672;28;20331;-67
2023/07/02 00:08:34;;;;;;;9.27;3.70;;;;;;;20.40;100.00;100585.44;2080938;28;20447;-67
2023/07/02 00:09:35;;;;;;;11.40;4.10;;;;;;;20.38;100.00;100567.53;2081029;28;20518;-67
2023/07/02 00:10:35;;;;;;;9.67;4.40;;;;;;;20.37;100.00;100583.63;2081100;28;20177;-67
2023/07/02 00:11:38;;;;;;;11.67;4.67;;;;;;;20.07;100.00;100536.56;2081163;28;20189;-67
2023/07/02 00:12:39;;;;;;;9.20;4.00;;;;;;;20.31;100.00;100580.00;2080522;28;20318;-67
2023/07/02 00:13:39;;;;;;;11.23;4.20;;;;;;;20.35;100.00;100574.91;2080132;28;20937;-67
2023/07/02 00:14:39;;;;;;;8.97;3.83;;;;;;;19.63;100.00;100465.88;2080911;28;20188;-67
2023/07/02 00:15:40;;;;;;;9.03;4.47;;;;;;;20.37;100.00;100569.53;2080850;28;20670;-67
2023/07/02 00:16:45;;;;;;;8.20;3.80;;;;;;;19.90;100.00;100508.28;2081227;28;20188;-67
2023/07/02 00:17:45;;;;;;;7.87;3.50;;;;;;;19.93;100.00;100518.53;2080983;28;20223;-67
2023/07/02 00:18:48;;;;;;;8.17;4.33;;;;;;;20.30;100.00;100572.84;2081108;28;20419;-67
2023/07/02 00:19:51;;;;;;;6.97;3.77;;;;;;;20.31;100.00;100571.56;2080911;28;20177;-67
2023/07/02 00:20:52;;;;;;;7.53;3.90;;;;;;;20.34;100.00;100567.75;2080964;28;20454;-67
2023/07/02 00:21:53;;;;;;;10.03;4.07;;;;;;;20.28;100.00;100568.97;2081043;28;20416;-67
2023/07/02 00:22:54;;;;;;;9.70;4.10;;;;;;;19.73;100.00;100496.13;2074023;28;20190;-67
2023/07/02 00:23:58;;;;;;;10.23;4.07;;;;;;;20.27;100.00;100570.25;2078854;28;20423;-67
2023/07/02 00:24:59;;;;;;;9.83;3.63;;;;;;;20.29;100.00;100567.69;2080877;28;20975;-67
2023/07/02 00:25:59;;;;;;;8.43;4.10;;;;;;;20.32;100.00;100573.09;2081055;28;20799;-67
2023/07/02 00:26:59;;;;;;;9.90;3.93;;;;;;;19.95;100.00;100521.63;2080903;28;20184;-67
2023/07/02 00:28:00;;;;;;;9.77;4.30;;;;;;;20.33;100.00;100571.06;2079787;28;20251;-67
2023/07/02 00:29:00;;;;;;;8.40;4.13;;;;;;;20.35;100.00;100579.75;2073028;28;20173;-67
2023/07/02 00:30:01;;;;;;;9.93;4.03;;;;;;;20.35;100.00;100582.56;2073016;28;20655;-67
2023/07/02 00:31:02;;;;;;;9.23;4.53;;;;;;;19.96;100.00;100516.78;2079057;28;20704;-67
2023/07/02 00:32:03;;;;;;;9.87;3.97;;;;;;;20.36;100.00;100578.53;2081081;28;20250;-67
2023/07/02 00:33:03;;;;;;;9.77;3.60;;;;;;;20.36;100.00;100570.81;2080930;28;20620;-67
2023/07/02 00:34:04;;;;;;;12.23;4.20;;;;;;;20.36;100.00;100579.28;2080374;28;20200;-67
2023/07/02 00:35:05;;;;;;;9.77;3.93;;;;;;;20.32;100.00;100575.16;2080912;28;20177;-67
2023/07/02 00:36:05;;;;;;;10.50;3.80;;;;;;;20.28;100.00;100568.97;2079620;28;20474;-67
2023/07/02 00:37:06;;;;;;;8.17;3.77;;;;;;;20.33;100.00;100579.50;2072377;28;20193;-67
2023/07/02 00:38:06;;;;;;;7.50;3.60;;;;;;;20.35;100.00;100565.69;2080135;28;20207;-67
2023/07/02 00:39:06;;;;;;;8.17;3.50;;;;;;;20.31;100.00;100562.34;2074904;28;20640;-67
2023/07/02 00:40:08;;;;;;;11.73;3.57;;;;;;;20.28;100.00;100571.78;2077669;28;20704;-67
2023/07/02 00:41:09;;;;;;;6.33;3.50;;;;;;;20.29;100.00;100573.31;2080798;28;20251;-67
2023/07/02 00:42:11;;;;;;;12.50;3.77;;;;;;;20.30;100.00;100566.41;2080686;28;20443;-67
2023/07/02 00:43:13;;;;;;;9.00;3.80;;;;;;;20.29;100.00;100565.66;2080031;28;20424;-67
2023/07/02 00:44:13;;;;;;;12.47;3.83;;;;;;;20.20;100.00;100551.00;2079867;28;20408;-67
2023/07/02 00:45:14;;;;;;;8.10;3.57;;;;;;;19.72;100.00;100499.44;2080846;28;20419;-67
2023/07/02 00:46:17;;;;;;;10.23;4.00;;;;;;;19.64;100.00;100487.09;2081113;28;20193;-67
2023/07/02 00:47:17;;;;;;;10.57;3.73;;;;;;;20.21;100.00;100575.81;2080842;28;20176;-67
2023/07/02 00:48:18;;;;;;;13.57;3.37;;;;;;;20.23;100.00;100572.53;2080604;28;20447;-67
2023/07/02 00:49:19;;;;;;;10.83;3.50;;;;;;;20.25;100.00;100582.00;2080669;28;20708;-67
2023/07/02 00:50:22;;;;;;;7.03;3.60;;;;;;;20.30;100.00;100577.69;2080753;28;20665;-67
2023/07/02 00:51:27;;;;;;;7.03;3.20;;;;;;;20.29;100.00;100573.31;2080968;28;20195;-67
2023/07/02 00:52:28;;;;;;;11.10;3.70;;;;;;;20.28;100.00;100568.97;2080830;28;20959;-67
2023/07/02 00:53:28;;;;;;;8.77;4.00;;;;;;;20.20;100.00;100560.22;2080543;28;20796;-67
2023/07/02 00:54:30;;;;;;;9.47;3.37;;;;;;;20.03;100.00;100531.16;2080618;28;20169;-67
2023/07/02 00:55:30;;;;;;;7.30;4.03;;;;;;;20.19;100.00;100564.31;2079451;28;20184;-67
2023/07/02 00:56:31;;;;;;;7.33;3.70;;;;;;;19.65;100.00;100497.84;2080808;28;20431;-67
2023/07/02 00:57:32;;;;;;;8.80;3.37;;;;;;;20.03;100.00;100562.09;2080659;28;20201;-67
2023/07/02 00:58:37;;;;;;;8.93;3.27;;;;;;;19.54;100.00;100491.38;2080727;28;20185;-67
2023/07/02 00:59:38;;;;;;;8.30;3.40;;;;;;;19.82;100.00;100554.22;2080989;28;20200;-67
2023/07/02 01:00:38;;;;;;;12.57;3.10;;;;;;;19.93;100.00;100571.97;2080886;28;20459;-67
2023/07/02 01:01:39;;;;;;;12.67;3.70;;;;;;;19.87;100.00;100562.72;2080548;28;20190;-67
2023/07/02 01:02:43;;;;;;;6.67;3.43;;;;;;;19.99;100.00;100578.44;2080273;28;20240;-67
2023/07/02 01:04:02;;;;;;;9.90;3.67;;;;;;;19.94;100.00;100575.56;2080167;28;20482;-67
2023/07/02 01:05:02;;;;;;;8.97;3.47;;;;;;;19.85;100.00;100567.31;2078489;28;20424;-67
2023/07/02 01:06:03;;;;;;;9.17;3.57;;;;;;;19.83;100.00;100561.38;2073876;28;20425;-67
2023/07/02 01:07:08;;;;;;;8.03;3.83;;;;;;;19.88;100.00;100563.47;2080739;28;20181;-67
2023/07/02 01:08:11;;;;;;;9.90;3.50;;;;;;;19.87;100.00;100562.72;2072795;28;20161;-67
2023/07/02 01:09:11;;;;;;;8.73;3.70;;;;;;;19.49;100.00;100506.13;2080699;28;20845;-67
2023/07/02 01:10:12;;;;;;;10.23;3.83;;;;;;;19.87;100.00;100567.56;2080563;28;20510;-67
2023/07/02 01:11:12;;;;;;;8.77;3.57;;;;;;;19.88;100.00;100566.28;2082854;28;20193;-67
2023/07/02 01:12:15;;;;;;;9.17;3.53;;;;;;;19.87;100.00;100576.78;2080404;28;20185;-67
2023/07/02 01:13:21;;;;;;;10.00;3.53;;;;;;;19.89;100.00;100579.09;2073003;28;20186;-67
2023/07/02 01:14:30;;;;;;;9.23;3.80;;;;;;;19.89;100.00;100574.25;2075357;28;20441;-67
2023/07/02 01:15:31;;;;;;;7.03;3.30;;;;;;;19.79;100.00;100574.91;2080485;28;20447;-67
2023/07/02 01:16:33;;;;;;;12.50;3.83;;;;;;;19.90;100.00;100587.03;2080568;28;20415;-66
2023/07/02 01:17:41;;;;;;;12.33;4.43;;;;;;;19.91;100.00;100579.38;2080543;28;20410;-67
2023/07/02 01:18:43;;;;;;;9.63;4.00;;;;;;;19.88;100.00;100575.50;2088418;28;20461;-67
2023/07/02 01:19:52;;;;;;;13.13;4.07;;;;;;;19.88;100.00;100583.16;2088853;28;21043;-67
2023/07/02 01:20:54;;;;;;;13.63;3.60;;;;;;;19.90;100.00;100583.47;2074506;28;20846;-67
2023/07/02 01:21:54;;;;;;;7.83;3.50;;;;;;;19.90;100.00;100581.41;2074165;28;20933;-67
2023/07/02 01:22:55;;;;;;;9.77;4.07;;;;;;;19.55;100.00;100521.00;2080761;28;20855;-67
2023/07/02 01:23:56;;;;;;;9.10;3.20;;;;;;;19.95;100.00;100585.56;2075333;28;20184;-67
2023/07/02 01:24:57;;;;;;;7.70;3.37;;;;;;;19.92;100.00;100594.97;2078571;28;20280;-67
2023/07/02 01:25:59;;;;;;;6.87;3.40;;;;;;;19.55;100.00;100529.44;2082523;28;20238;-67
2023/07/02 01:27:02;;;;;;;9.87;3.30;;;;;;;20.01;100.00;100583.56;2082140;28;20534;-67
2023/07/02 01:28:03;;;;;;;5.23;3.30;;;;;;;19.80;100.00;100556.78;2082495;28;20412;-67
2023/07/02 01:29:17;;;;;;;5.57;3.23;;;;;;;20.02;100.00;100585.09;2082290;28;20411;-67
2023/07/02 01:30:18;;;;;;;9.80;3.43;;;;;;;19.13;100.00;100445.69;2082064;28;20936;-67
2023/07/02 01:31:18;;;;;;;6.27;2.90;;;;;;;19.90;100.00;100566.59;2081900;28;20489;-67
2023/07/02 01:32:19;;;;;;;8.57;3.63;;;;;;;20.05;100.00;100592.56;2082324;28;20188;-67
2023/07/02 01:33:19;;;;;;;9.30;3.37;;;;;;;20.00;100.00;100579.97;2082053;28;20192;-67
2023/07/02 01:34:19;;;;;;;10.40;3.83;;;;;;;20.06;100.00;100582.84;2082166;28;20223;-67
2023/07/02 01:35:20;;;;;;;8.00;3.33;;;;;;;20.06;100.00;100580.03;2076773;28;20178;-67
2023/07/02 01:36:20;;;;;;;8.37;3.60;;;;;;;20.07;100.00;100590.78;2078068;28;20669;-67
2023/07/02 01:37:21;;;;;;;8.87;3.30;;;;;;;19.69;100.00;100520.88;2079169;28;20566;-67
2023/07/02 01:38:22;;;;;;;10.97;3.93;;;;;;;19.86;100.00;100549.16;2075583;28;20201;-67
2023/07/02 01:39:22;;;;;;;6.83;3.50;;;;;;;20.08;100.00;100575.47;2082303;28;20184;-67
2023/07/02 01:40:23;;;;;;;7.20;3.50;;;;;;;20.06;100.00;100577.97;2082312;28;20223;-67
2023/07/02 01:41:23;;;;;;;7.67;3.70;;;;;;;20.05;100.00;100576.44;2082229;28;20196;-67
2023/07/02 01:42:24;;;;;;;11.00;3.60;;;;;;;20.05;100.00;100578.50;2075398;28;20184;-67
2023/07/02 01:43:24;;;;;;;8.53;3.57;;;;;;;19.27;100.00;100458.91;2079057;28;20291;-67
2023/07/02 01:44:25;;;;;;;9.33;3.77;;;;;;;19.30;100.00;100466.31;2082123;28;20196;-67
2023/07/02 01:45:25;;;;;;;11.17;3.83;;;;;;;19.95;100.00;100568.69;2081138;28;20227;-67
2023/07/02 01:46:25;;;;;;;6.37;3.20;;;;;;;19.91;100.00;100560.44;2081360;28;20181;-67
2023/07/02 01:47:26;;;;;;;9.13;3.33;;;;;;;19.95;100.00;100565.88;2074230;28;20174;-67
2023/07/02 01:48:26;;;;;;;10.20;3.33;;;;;;;19.98;100.00;100576.09;2073994;28;20269;-67
2023/07/02 01:49:27;;;;;;;12.97;3.40;;;;;;;19.95;100.00;100571.50;2081918;28;20212;-67
2023/07/02 01:50:27;;;;;;;7.67;2.70;;;;;;;19.92;100.00;100570.44;2075200;28;20189;-67
2023/07/02 01:51:27;;;;;;;10.77;3.30;;;;;;;19.86;100.00;100566.78;2074300;28;20200;-67
2023/07/02 01:52:30;;;;;;;8.50;3.23;;;;;;;19.75;100.00;100569.50;2078034;28;20265;-67
2023/07/02 01:53:30;;;;;;;6.00;3.43;;;;;;;19.69;100.00;100568.66;2081737;28;20535;-67
2023/07/02 01:54:32;;;;;;;11.23;3.20;;;;;;;19.68;100.00;100558.69;2082280;28;20434;-67
2023/07/02 01:55:32;;;;;;;8.47;3.00;;;;;;;19.53;100.00;100540.38;2081733;28;20579;-67
2023/07/02 01:56:33;;;;;;;6.70;3.43;;;;;;;19.24;100.00;100499.22;2082251;28;20503;-67
2023/07/02 01:57:33;;;;;;;6.53;3.30;;;;;;;19.21;100.00;100493.78;2082058;28;20258;-67
2023/07/02 01:58:34;;;;;;;8.53;3.60;;;;;;;19.38;100.00;100520.81;2081487;28;20181;-67
2023/07/02 01:59:34;;;;;;;8.80;3.20;;;;;;;19.60;100.00;100554.03;2081228;28;20242;-67
2023/07/02 02:00:36;;;;;;;8.30;3.03;;;;;;;19.61;100.00;100555.56;2081947;28;20192;-67
2023/07/02 02:01:40;;;;;;;5.77;3.20;;;;;;;19.62;100.00;100569.13;2081978;28;20193;-67
2023/07/02 02:02:40;;;;;;;9.80;3.30;;;;;;;19.56;100.00;100545.03;2081910;28;20431;-67
2023/07/02 02:03:41;;;;;;;7.87;3.33;;;;;;;19.54;100.00;100548.34;2081645;28;20489;-67
2023/07/02 02:04:43;;;;;;;7.63;3.30;;;;;;;19.51;100.00;100552.16;2081963;28;20208;-67
2023/07/02 02:05:43;;;;;;;11.00;3.37;;;;;;;19.41;100.00;100536.72;2081950;28;20263;-67
2023/07/02 02:06:44;;;;;;;6.50;3.03;;;;;;;19.38;100.00;100540.50;2081970;28;20944;-67
2023/07/02 02:07:44;;;;;;;10.50;3.73;;;;;;;19.53;100.00;100549.59;2081975;28;20184;-67
2023/07/02 02:08:45;;;;;;;9.57;3.40;;;;;;;19.57;100.00;100555.00;2081858;28;20198;-67
2023/07/02 02:09:45;;;;;;;8.70;3.50;;;;;;;19.28;100.00;100524.28;2089385;28;20291;-67
2023/07/02 02:10:46;;;;;;;10.27;3.30;;;;;;;19.56;100.00;100559.88;2086205;28;20388;-67
2023/07/02 02:11:49;;;;;;;10.23;3.57;;;;;;;19.59;100.00;100549.66;2076028;28;20178;-67
2023/07/02 02:12:50;;;;;;;9.07;3.30;;;;;;;19.61;100.00;100559.16;2081930;28;20165;-67
2023/07/02 02:13:51;;;;;;;9.17;3.40;;;;;;;19.33;100.00;100498.28;2088588;28;20955;-67
2023/07/02 02:14:51;;;;;;;11.53;3.63;;;;;;;19.63;100.00;100550.97;2089157;28;20702;-67
2023/07/02 02:15:52;;;;;;;7.40;3.27;;;;;;;19.66;100.00;100549.97;2081420;28;20197;-67
2023/07/02 02:16:52;;;;;;;10.43;3.27;;;;;;;19.38;100.00;100501.16;2082032;28;20199;-67
2023/07/02 02:17:53;;;;;;;10.17;3.27;;;;;;;19.70;100.00;100544.16;2076735;28;20583;-67
2023/07/02 02:18:54;;;;;;;9.93;3.87;;;;;;;19.27;100.00;100477.78;2077809;28;20181;-67
2023/07/02 02:19:54;;;;;;;8.33;3.23;;;;;;;19.71;100.00;100546.44;2081848;28;20246;-67
2023/07/02 02:20:54;;;;;;;10.50;3.63;;;;;;;19.39;100.00;100494.25;2081849;28;20539;-67
2023/07/02 02:21:55;;;;;;;9.87;3.53;;;;;;;19.72;100.00;100541.59;2081683;28;20278;-67
2023/07/02 02:22:55;;;;;;;14.10;3.40;;;;;;;19.46;100.00;100495.88;2082119;28;20180;-67
2023/07/02 02:23:55;;;;;;;14.30;3.90;;;;;;;19.26;100.00;100462.97;2073732;28;20181;-67
2023/07/02 02:24:56;;;;;;;10.97;3.47;;;;;;;19.75;100.00;100537.81;2080129;28;20235;-67
2023/07/02 02:25:56;;;;;;;12.00;3.57;;;;;;;19.77;100.00;100527.63;2076474;28;20185;-67
2023/07/02 02:26:57;;;;;;;13.13;3.80;;;;;;;19.79;100.00;100527.88;2077838;28;20231;-67
2023/07/02 02:27:57;;;;;;;10.43;4.13;;;;;;;19.82;100.00;100524.09;2078779;28;20180;-67
2023/07/02 02:28:57;;;;;;;9.80;4.20;;;;;;;19.80;100.00;100520.97;2073603;28;20252;-67
2023/07/02 02:29:58;;;;;;;13.17;4.30;;;;;;;19.82;100.00;100526.09;2078164;28;20173;-67
2023/07/02 02:30:59;;;;;;;11.93;3.80;;;;;;;19.84;100.00;100521.53;2081581;28;20191;-67
2023/07/02 02:31:59;;;;;;;11.37;3.80;;;;;;;19.89;100.00;100528.47;2081798;28;20189;-67
2023/07/02 02:32:59;;;;;;;16.53;4.10;;;;;;;19.89;100.00;100526.44;2081842;28;20223;-67
2023/07/02 02:34:00;;;;;;;12.93;3.90;;;;;;;19.91;100.00;100518.25;2081320;28;20188;-67
2023/07/02 02:35:00;;;;;;;16.63;4.10;;;;;;;19.92;100.00;100522.63;2081298;28;20192;-67
2023/07/02 02:36:02;;;;;;;14.60;4.30;;;;;;;19.46;100.00;100446.06;2081780;28;20172;-67
2023/07/02 02:37:03;;;;;;;15.13;4.43;;;;;;;19.86;100.00;100504.91;2081580;28;20307;-67
2023/07/02 02:38:04;;;;;;;12.90;4.13;;;;;;;19.92;100.00;100513.41;2081661;28;20463;-67
2023/07/02 02:39:04;;;;;;;9.80;3.87;;;;;;;19.91;100.00;100509.81;2081849;28;20189;-67
2023/07/02 02:40:08;;;;;;;11.13;3.87;;;;;;;19.91;100.00;100517.50;2081779;28;20439;-67
2023/07/02 02:41:09;;;;;;;15.17;3.93;;;;;;;19.91;100.00;100520.31;2076605;28;20185;-67
2023/07/02 02:42:10;;;;;;;10.20;3.70;;;;;;;19.92;100.00;100521.84;2077606;28;20980;-67
2023/07/02 02:43:11;;;;;;;10.77;4.33;;;;;;;19.76;100.00;100489.50;2081412;28;20196;-67
2023/07/02 02:44:11;;;;;;;12.83;4.00;;;;;;;19.98;100.00;100526.25;2081029;28;20519;-66
2023/07/02 02:45:12;;;;;;;14.43;4.67;;;;;;;20.02;100.00;100526.03;2081445;28;20670;-67
2023/07/02 02:46:12;;;;;;;17.33;4.30;;;;;;;20.01;100.00;100516.81;2080991;28;20168;-67
2023/07/02 02:47:13;;;;;;;13.77;4.40;;;;;;;19.99;100.00;100522.16;2073690;28;20177;-67
2023/07/02 02:48:13;;;;;;;15.17;4.57;;;;;;;19.98;100.00;100520.63;2081028;28;20204;-67
2023/07/02 02:49:13;;;;;;;9.80;4.17;;;;;;;20.03;100.00;100527.56;2081526;28;20196;-67
2023/07/02 02:50:14;;;;;;;14.13;3.83;;;;;;;20.02;100.00;100526.03;2081519;28;20607;-67
2023/07/02 02:51:14;;;;;;;12.70;4.20;;;;;;;20.00;100.00;100506.84;2077671;28;20189;-67
2023/07/02 02:52:15;;;;;;;13.00;4.20;;;;;;;20.04;100.00;100515.03;2076362;28;20191;-67
2023/07/02 02:53:15;;;;;;;15.43;4.20;;;;;;;20.02;100.00;100514.78;2089261;28;20291;-67
2023/07/02 02:54:16;;;;;;;11.73;3.67;;;;;;;20.01;100.00;100507.63;2089054;28;20700;-67
2023/07/02 02:55:16;;;;;;;8.60;3.60;;;;;;;19.99;100.00;100508.09;2081676;28;20185;-67
2023/07/02 02:56:17;;;;;;;17.83;4.60;;;;;;;20.00;100.00;100514.53;2081413;28;20177;-67
2023/07/02 02:57:17;;;;;;;17.63;4.10;;;;;;;19.91;100.00;100515.44;2081498;28;20208;-67
2023/07/02 02:58:17;;;;;;;13.00;3.73;;;;;;;19.89;100.00;100520.81;2081243;28;20679;-67
2023/07/02 02:59:18;;;;;;;12.83;3.70;;;;;;;19.79;100.00;100516.63;2077785;28;20733;-67
2023/07/02 03:00:18;;;;;;;8.27;4.33;;;;;;;19.80;100.00;100523.03;2076172;28;20583;-67
2023/07/02 03:01:18;;;;;;;10.10;3.70;;;;;;;19.75;100.00;100523.75;2081733;28;20641;-66
2023/07/02 03:02:19;;;;;;;12.37;4.00;;;;;;;19.78;100.00;100523.53;2081188;28;20180;-67
2023/07/02 03:03:24;;;;;;;17.03;4.57;;;;;;;19.41;100.00;100474.09;2073330;28;20213;-67
2023/07/02 03:04:24;;;;;;;8.23;3.80;;;;;;;19.80;100.00;100535.03;2081114;28;20330;-67
2023/07/02 03:05:26;;;;;;;10.37;4.13;;;;;;;19.81;100.00;100544.25;2081318;28;20447;-67
2023/07/02 03:06:26;;;;;;;12.80;3.77;;;;;;;19.46;100.00;100491.03;2081790;28;20604;-66
2023/07/02 03:07:26;;;;;;;11.20;4.50;;;;;;;19.85;100.00;100536.38;2080818;28;20458;-67
2023/07/02 03:08:27;;;;;;;15.80;4.00;;;;;;;19.85;100.00;100539.94;2077417;28;20197;-67
2023/07/02 03:09:27;;;;;;;11.40;4.00;;;;;;;19.87;100.00;100543.03;2073315;28;20182;-67
2023/07/02 03:10:28;;;;;;;10.73;3.90;;;;;;;19.88;100.00;100538.19;2074252;28;20213;-67
2023/07/02 03:11:28;;;;;;;11.43;4.53;;;;;;;19.91;100.00;100543.56;2081519;28;20252;-67
2023/07/02 03:12:29;;;;;;;11.40;4.60;;;;;;;19.95;100.00;100540.56;2081579;28;20220;-67
2023/07/02 03:13:29;;;;;;;12.60;3.80;;;;;;;19.98;100.00;100539.53;2080989;28;20177;-67
2023/07/02 03:14:29;;;;;;;15.43;4.40;;;;;;;19.69;100.00;100487.16;2077297;28;20559;-67
2023/07/02 03:15:30;;;;;;;10.53;3.90;;;;;;;20.04;100.00;100541.13;2081347;28;20191;-67
2023/07/02 03:16:31;;;;;;;12.17;4.23;;;;;;;20.03;100.00;100533.97;2078150;28;20689;-67
2023/07/02 03:17:31;;;;;;;12.30;4.03;;;;;;;20.02;100.00;100538.06;2075398;28;20166;-67
2023/07/02 03:18:32;;;;;;;11.60;3.73;;;;;;;19.88;100.00;100526.91;2081084;28;20173;-67
2023/07/02 03:19:32;;;;;;;9.37;3.63;;;;;;;20.06;100.00;100547.03;2081606;28;20219;-67
2023/07/02 03:20:33;;;;;;;13.17;4.33;;;;;;;19.79;100.00;100507.41;2081694;28;20561;-66
2023/07/02 03:21:33;;;;;;;9.90;3.70;;;;;;;20.11;100.00;100549.13;2074140;28;20635;-67
2023/07/02 03:22:34;;;;;;;15.40;3.93;;;;;;;19.76;100.00;100491.56;2079219;28;20259;-66
2023/07/02 03:23:34;;;;;;;14.60;4.50;;;;;;;20.14;100.00;100544.56;2088582;28;20290;-66
2023/07/02 03:24:34;;;;;;;11.10;4.03;;;;;;;19.60;100.00;100464.06;2088809;28;20709;-67
2023/07/02 03:25:35;;;;;;;11.13;3.80;;;;;;;20.16;100.00;100545.59;2080992;28;20559;-67
2023/07/02 03:26:35;;;;;;;11.47;3.87;;;;;;;20.19;100.00;100552.28;2081433;28;20671;-67
2023/07/02 03:27:36;;;;;;;11.00;4.30;;;;;;;20.16;100.00;100545.59;2081482;28;20684;-67
2023/07/02 03:28:36;;;;;;;12.37;4.30;;;;;;;20.18;100.00;100547.91;2073339;28;20561;-67
2023/07/02 03:29:38;;;;;;;15.17;4.53;;;;;;;20.19;100.00;100558.69;2079498;28;20579;-67
2023/07/02 03:30:38;;;;;;;15.17;4.13;;;;;;;20.22;100.00;100542.84;2080730;28;20197;-67
2023/07/02 03:31:39;;;;;;;13.10;5.00;;;;;;;20.24;100.00;100543.09;2081346;28;20510;-67
2023/07/02 03:32:39;;;;;;;12.03;4.07;;;;;;;20.25;100.00;100545.41;2081100;28;20197;-67
2023/07/02 03:33:39;;;;;;;10.10;3.73;;;;;;;20.22;100.00;100537.22;2080906;28;20602;-66
2023/07/02 03:34:40;;;;;;;12.43;4.43;;;;;;;20.27;100.00;100542.88;2079803;28;20176;-66
2023/07/02 03:35:41;;;;;;;9.63;4.47;;;;;;;20.18;100.00;100531.81;2073473;28;20173;-66
2023/07/02 03:36:41;;;;;;;15.57;4.37;;;;;;;20.30;100.00;100550.31;2081467;28;20264;-67
2023/07/02 03:37:43;;;;;;;11.47;3.90;;;;;;;20.33;100.00;100549.34;2073909;28;20272;-67
2023/07/02 03:38:44;;;;;;;13.83;4.20;;;;;;;20.36;100.00;100550.38;2086238;28;20208;-66
2023/07/02 03:39:44;;;;;;;14.40;4.47;;;;;;;19.82;100.00;100475.50;2089467;28;20973;-66
2023/07/02 03:40:45;;;;;;;11.13;4.03;;;;;;;20.37;100.00;100557.53;2092544;28;20246;-67
2023/07/02 03:41:45;;;;;;;13.40;4.40;;;;;;;20.38;100.00;100553.44;2085482;28;20686;-67
2023/07/02 03:42:45;;;;;;;11.57;4.23;;;;;;;20.16;100.00;100528.72;2074527;28;20184;-67
2023/07/02 03:43:47;;;;;;;13.00;4.13;;;;;;;20.36;100.00;100559.56;2080549;28;20653;-67
2023/07/02 03:44:48;;;;;;;10.37;4.43;;;;;;;20.38;100.00;100561.88;2081427;28;20212;-67
2023/07/02 03:45:48;;;;;;;11.93;4.37;;;;;;;20.43;100.00;100564.75;2080795;28;20443;-66
2023/07/02 03:46:49;;;;;;;15.33;4.70;;;;;;;20.39;100.00;100550.13;2073998;28;20566;-67
2023/07/02 03:47:49;;;;;;;12.63;4.30;;;;;;;20.45;100.00;100556.56;2078617;28;20562;-67
2023/07/02 03:48:49;;;;;;;13.40;4.20;;;;;;;20.48;100.00;100557.59;2081367;28;20184;-67
2023/07/02 03:49:50;;;;;;;16.67;4.17;;;;;;;20.50;100.00;100557.88;2077519;28;20264;-67
2023/07/02 03:50:50;;;;;;;9.80;4.00;;;;;;;20.21;100.00;100504.72;2073030;28;20573;-67
2023/07/02 03:51:51;;;;;;;14.27;4.20;;;;;;;20.51;100.00;100548.94;2073921;28;20213;-67
2023/07/02 03:52:51;;;;;;;14.03;4.13;;;;;;;20.20;100.00;100494.72;2080870;28;20181;-67
2023/07/02 03:53:52;;;;;;;13.67;3.93;;;;;;;20.50;100.00;100547.38;2072643;28;20181;-67
2023/07/02 03:54:52;;;;;;;12.00;4.10;;;;;;;20.51;100.00;100557.38;2080171;28;20283;-67
2023/07/02 03:55:52;;;;;;;10.73;4.30;;;;;;;20.58;100.00;100553.31;2080818;28;20185;-67
2023/07/02 03:56:53;;;;;;;18.23;5.47;;;;;;;20.59;100.00;100552.03;2081139;28;20215;-67
2023/07/02 03:57:53;;;;;;;14.23;4.70;;;;;;;20.40;100.00;100517.91;2080992;28;20205;-67
2023/07/02 03:58:53;;;;;;;14.30;4.20;;;;;;;20.63;100.00;100553.34;2081037;28;20201;-67
2023/07/02 03:59:54;;;;;;;15.90;4.43;;;;;;;20.62;100.00;100542.59;2080952;28;20177;-67
2023/07/02 04:00:55;;;;;;;19.50;5.30;;;;;;;20.65;100.00;100550.03;2081057;28;20185;-67
2023/07/02 04:01:55;;;;;;;7.57;3.60;;;;;;;20.60;100.00;100540.28;2081161;28;20218;-67
2023/07/02 04:02:55;;;;;;;12.70;4.60;;;;;;;20.55;100.00;100543.84;2081278;28;20264;-67
2023/07/02 04:03:56;;;;;;;8.80;3.93;;;;;;;20.51;100.00;100545.34;2080938;28;20193;-67
2023/07/02 04:04:56;;;;;;;12.87;4.07;;;;;;;20.50;100.00;100544.56;2080927;28;20184;-67
2023/07/02 04:05:57;;;;;;;13.47;4.50;;;;;;;20.42;100.00;100532.22;2081118;28;20192;-67
2023/07/02 04:06:57;;;;;;;13.20;4.50;;;;;;;20.51;100.00;100554.56;2081245;28;20268;-67
2023/07/02 04:07:58;;;;;;;11.07;3.90;;;;;;;20.40;100.00;100534.78;2080683;28;20181;-67
2023/07/02 04:08:58;;;;;;;11.33;4.00;;;;;;;20.58;100.00;100548.44;2081141;28;20267;-67
2023/07/02 04:09:59;;;;;;;11.97;3.93;;;;;;;20.58;100.00;100548.44;2081151;28;20559;-67
2023/07/02 04:10:59;;;;;;;13.67;4.13;;;;;;;20.58;100.00;100542.81;2081077;28;20263;-67
2023/07/02 04:12:01;;;;;;;12.40;4.20;;;;;;;20.61;100.00;100546.66;2080977;28;20181;-67
2023/07/02 04:13:01;;;;;;;12.83;4.07;;;;;;;20.64;100.00;100566.16;2081080;28;20207;-67
2023/07/02 04:14:02;;;;;;;15.50;4.00;;;;;;;20.22;100.00;100501.38;2076206;28;20456;-67
2023/07/02 04:15:03;;;;;;;13.63;4.23;;;;;;;20.26;100.00;100507.56;2082789;28;20305;-67
2023/07/02 04:16:04;;;;;;;11.50;4.40;;;;;;;20.62;100.00;100559.50;2080327;28;20565;-67
2023/07/02 04:17:05;;;;;;;9.07;4.37;;;;;;;20.65;100.00;100564.09;2074263;28;20420;-67
2023/07/02 04:18:05;;;;;;;11.97;4.47;;;;;;;20.58;100.00;100570.22;2080690;28;20205;-67
2023/07/02 04:19:06;;;;;;;17.07;4.60;;;;;;;20.50;100.00;100553.03;2081194;28;20205;-67
2023/07/02 04:20:07;;;;;;;11.93;4.03;;;;;;;20.54;100.00;100569.66;2088651;28;20180;-67
2023/07/02 04:21:08;;;;;;;15.57;4.50;;;;;;;20.37;100.00;100543.47;2088488;28;20672;-67
2023/07/02 04:22:08;;;;;;;11.40;5.07;;;;;;;20.38;100.00;100540.16;2074710;28;20519;-67
2023/07/02 04:23:08;;;;;;;12.73;4.30;;;;;;;20.57;100.00;100575.06;2072004;28;20190;-67
2023/07/02 04:24:09;;;;;;;10.13;3.73;;;;;;;20.59;100.00;100571.75;2072262;28;20182;-67
2023/07/02 04:25:09;;;;;;;11.20;3.97;;;;;;;20.65;100.00;100572.56;2074220;28;20272;-67
2023/07/02 04:26:10;;;;;;;11.23;4.33;;;;;;;20.66;100.00;100576.91;2080624;28;20181;-67
2023/07/02 04:27:10;;;;;;;10.43;4.00;;;;;;;20.15;100.00;100506.72;2081250;28;20188;-67
2023/07/02 04:28:11;;;;;;;9.70;4.30;;;;;;;20.64;100.00;100574.63;2080945;28;20198;-67
2023/07/02 04:29:11;;;;;;;12.00;4.53;;;;;;;20.68;100.00;100580.00;2080951;28;20271;-67
2023/07/02 04:30:13;;;;;;;12.07;4.80;;;;;;;20.71;100.00;100582.59;2075521;28;20193;-67
2023/07/02 04:31:14;;;;;;;11.10;4.10;;;;;;;20.71;100.00;100579.78;2076534;28;20193;-67
2023/07/02 04:32:14;;;;;;;16.07;5.30;;;;;;;20.76;100.00;100581.84;2080332;28;20447;-67
2023/07/02 04:33:15;;;;;;;16.13;4.73;;;;;;;20.79;100.00;100578.03;2075019;28;20578;-67
2023/07/02 04:34:15;;;;;;;16.93;4.33;;;;;;;20.80;100.00;100576.75;2080424;28;20575;-67
2023/07/02 04:35:16;;;;;;;14.40;4.60;;;;;;;20.47;100.00;100522.28;2080584;28;20180;-67
2023/07/02 04:36:16;;;;;;;16.57;4.47;;;;;;;20.86;100.00;100573.97;2072511;28;20268;-67
2023/07/02 04:37:17;;;;;;;14.57;4.30;;;;;;;20.86;100.00;100568.31;2079829;28;20192;-67
2023/07/02 04:38:17;;;;;;;17.50;4.33;;;;;;;20.90;100.00;100575.31;2080469;28;20474;-67